createdAt,value
2018-08-31T00:02:09.644Z,20.70
2018-08-31T00:04:49.393Z,12.93
2018-08-31T00:07:30.835Z,10.97
2018-08-31T00:12:43.620Z,17.83
2018-08-31T00:15:11.812Z,8.67
2018-08-31T00:17:41.305Z,8.73
2018-08-31T00:20:10.918Z,10.10
2018-08-31T00:22:39.092Z,11.60
2018-08-31T00:25:19.898Z,10.57
2018-08-31T00:27:59.659Z,10.50
2018-08-31T00:30:39.344Z,10.63
2018-08-31T00:36:31.812Z,10.43
2018-08-31T00:39:12.524Z,14.90
2018-08-31T00:42:09.468Z,13.80
2018-08-31T00:44:45.727Z,11.90
2018-08-31T00:47:14.194Z,13.93
2018-08-31T00:49:42.424Z,12.47
2018-08-31T00:52:10.669Z,13.43
2018-08-31T00:54:39.197Z,15.17
2018-08-31T00:57:07.405Z,13.83
2018-08-31T00:59:35.613Z,13.07
2018-08-31T01:02:03.803Z,15.27
2018-08-31T01:04:32.004Z,12.47
2018-08-31T01:07:00.190Z,15.73
2018-08-31T01:09:28.378Z,13.63
2018-08-31T01:11:56.552Z,14.07
2018-08-31T01:14:24.763Z,14.57
2018-08-31T01:16:52.935Z,13.33
2018-08-31T01:19:21.128Z,16.40
2018-08-31T01:21:49.500Z,15.40
2018-08-31T01:24:17.713Z,13.53
2018-08-31T01:26:45.893Z,14.13
2018-08-31T01:29:14.090Z,13.13
2018-08-31T01:31:42.332Z,14.97
2018-08-31T01:34:10.510Z,15.73
2018-08-31T01:36:38.712Z,13.90
2018-08-31T01:39:07.480Z,14.70
2018-08-31T01:41:35.867Z,14.33
2018-08-31T01:44:04.084Z,14.47
2018-08-31T01:46:32.412Z,13.63
2018-08-31T01:49:00.601Z,15.27
2018-08-31T01:51:28.796Z,14.27
2018-08-31T01:55:21.207Z,14.30
2018-08-31T01:57:49.412Z,15.27
2018-08-31T02:00:17.589Z,14.20
2018-08-31T02:02:45.796Z,14.03
2018-08-31T02:05:14.249Z,15.07
2018-08-31T02:07:42.388Z,14.17
2018-08-31T02:10:10.569Z,15.20
2018-08-31T02:12:38.780Z,16.67
2018-08-31T02:15:06.961Z,16.23
2018-08-31T02:17:35.146Z,16.10
2018-08-31T02:20:03.353Z,17.23
2018-08-31T02:22:31.602Z,16.27
2018-08-31T02:24:59.769Z,17.17
2018-08-31T02:27:27.969Z,18.27
2018-08-31T02:29:56.140Z,18.23
2018-08-31T02:32:24.366Z,17.93
2018-08-31T02:34:52.597Z,18.10
2018-08-31T02:37:20.775Z,18.50
2018-08-31T02:39:48.961Z,18.73
2018-08-31T02:42:17.461Z,16.73
2018-08-31T02:44:45.675Z,18.83
2018-08-31T02:47:13.882Z,17.43
2018-08-31T02:49:42.083Z,17.93
2018-08-31T02:52:10.273Z,16.27
2018-08-31T02:54:38.436Z,16.93
2018-08-31T02:57:06.626Z,17.07
2018-08-31T02:59:34.822Z,17.13
2018-08-31T03:02:03.010Z,17.67
2018-08-31T03:04:31.216Z,16.43
2018-08-31T03:06:59.404Z,15.47
2018-08-31T03:09:27.582Z,17.20
2018-08-31T03:11:55.757Z,17.03
2018-08-31T03:14:23.920Z,16.87
2018-08-31T03:16:52.111Z,17.83
2018-08-31T03:19:20.328Z,17.60
2018-08-31T03:21:48.517Z,17.47
2018-08-31T03:24:16.693Z,17.40
2018-08-31T03:26:44.899Z,16.67
2018-08-31T03:29:13.097Z,17.70
2018-08-31T03:31:41.305Z,18.00
2018-08-31T03:34:09.494Z,17.50
2018-08-31T03:36:37.677Z,18.27
2018-08-31T03:39:07.715Z,18.37
2018-08-31T03:41:35.894Z,19.20
2018-08-31T03:44:04.126Z,18.73
2018-08-31T03:46:32.980Z,19.20
2018-08-31T03:49:01.700Z,19.43
2018-08-31T03:51:29.984Z,18.43
2018-08-31T03:53:58.188Z,20.43
2018-08-31T03:56:26.428Z,19.77
2018-08-31T03:58:54.622Z,18.23
2018-08-31T04:01:22.815Z,19.77
2018-08-31T04:03:52.044Z,19.57
2018-08-31T04:06:20.283Z,18.03
2018-08-31T04:08:48.490Z,18.03
2018-08-31T04:11:16.704Z,20.13
2018-08-31T04:13:44.903Z,19.47
2018-08-31T04:16:13.082Z,19.27
2018-08-31T04:18:41.267Z,20.03
2018-08-31T04:21:09.473Z,21.37
2018-08-31T04:23:37.656Z,20.80
2018-08-31T04:26:05.848Z,20.83
2018-08-31T04:28:34.043Z,22.30
2018-08-31T04:31:02.274Z,21.63
2018-08-31T04:33:30.449Z,22.47
2018-08-31T04:35:58.648Z,22.53
2018-08-31T04:38:26.824Z,23.23
2018-08-31T04:40:55.071Z,23.43
2018-08-31T04:43:23.234Z,24.23
2018-08-31T04:45:51.599Z,24.20
2018-08-31T04:48:19.802Z,23.60
2018-08-31T04:50:47.996Z,23.70
2018-08-31T04:53:16.195Z,24.57
2018-08-31T04:55:44.375Z,22.23
2018-08-31T04:58:12.828Z,24.87
2018-08-31T05:00:41.025Z,24.37
2018-08-31T05:03:09.217Z,24.07
2018-08-31T05:05:37.432Z,22.47
2018-08-31T05:08:05.648Z,23.57
2018-08-31T05:10:33.829Z,24.23
2018-08-31T05:13:02.050Z,23.30
2018-08-31T05:15:30.236Z,23.37
2018-08-31T05:17:58.444Z,24.30
2018-08-31T05:20:26.666Z,26.10
2018-08-31T05:22:54.973Z,26.90
2018-08-31T05:25:23.156Z,26.33
2018-08-31T05:27:51.349Z,25.93
2018-08-31T05:30:19.540Z,29.97
2018-08-31T05:32:47.717Z,25.03
2018-08-31T05:35:15.908Z,25.33
2018-08-31T05:37:44.077Z,24.23
2018-08-31T05:40:12.254Z,26.63
2018-08-31T05:42:40.439Z,24.13
2018-08-31T05:45:08.604Z,25.67
2018-08-31T05:47:36.772Z,25.23
2018-08-31T05:50:05.124Z,25.90
2018-08-31T05:52:33.297Z,25.07
2018-08-31T05:55:01.467Z,24.80
2018-08-31T05:57:29.679Z,25.67
2018-08-31T05:59:57.883Z,24.33
2018-08-31T06:02:26.049Z,24.97
2018-08-31T06:04:54.285Z,24.77
2018-08-31T06:07:22.477Z,24.37
2018-08-31T06:09:50.703Z,24.33
2018-08-31T06:12:18.896Z,23.17
2018-08-31T06:14:47.062Z,25.50
2018-08-31T06:17:15.229Z,23.90
2018-08-31T06:19:44.166Z,25.33
2018-08-31T06:22:12.866Z,24.83
2018-08-31T06:24:41.037Z,24.53
2018-08-31T06:27:09.258Z,25.67
2018-08-31T06:29:37.397Z,24.17
2018-08-31T06:32:05.596Z,24.07
2018-08-31T06:34:33.809Z,23.30
2018-08-31T06:37:02.058Z,29.53
2018-08-31T06:39:30.316Z,26.80
2018-08-31T06:41:58.625Z,25.47
2018-08-31T06:44:26.809Z,32.20
2018-08-31T06:46:55.068Z,25.40
2018-08-31T06:49:23.226Z,30.60
2018-08-31T06:51:51.396Z,27.90
2018-08-31T06:54:19.684Z,26.40
2018-08-31T06:56:47.984Z,24.23
2018-08-31T06:59:16.167Z,27.03
2018-08-31T07:01:44.334Z,27.17
2018-08-31T07:04:12.504Z,25.83
2018-08-31T07:06:40.785Z,26.43
2018-08-31T07:09:10.368Z,24.53
2018-08-31T07:11:38.598Z,23.37
2018-08-31T07:14:07.227Z,24.00
2018-08-31T07:16:35.502Z,23.30
2018-08-31T07:19:03.729Z,25.93
2018-08-31T07:21:31.915Z,25.13
2018-08-31T07:24:00.100Z,30.57
2018-08-31T07:26:28.368Z,26.10
2018-08-31T07:28:56.477Z,24.47
2018-08-31T07:31:24.692Z,25.30
2018-08-31T07:33:52.874Z,28.07
2018-08-31T07:36:21.097Z,28.77
2018-08-31T07:38:49.222Z,25.17
2018-08-31T07:41:17.527Z,25.13
2018-08-31T07:43:45.701Z,25.47
2018-08-31T07:46:13.897Z,25.67
2018-08-31T07:48:42.072Z,24.70
2018-08-31T07:51:10.233Z,26.73
2018-08-31T07:53:38.416Z,24.97
2018-08-31T07:56:06.584Z,26.03
2018-08-31T07:58:34.748Z,25.40
2018-08-31T08:01:02.941Z,25.73
2018-08-31T08:03:31.126Z,26.33
2018-08-31T08:05:59.292Z,23.53
2018-08-31T08:08:27.482Z,24.23
2018-08-31T08:10:56.285Z,26.67
2018-08-31T08:13:24.495Z,26.00
2018-08-31T08:15:53.059Z,26.37
2018-08-31T08:18:21.216Z,24.43
2018-08-31T08:20:49.461Z,23.83
2018-08-31T08:23:17.664Z,26.87
2018-08-31T08:25:45.807Z,26.23
2018-08-31T08:28:13.981Z,25.43
2018-08-31T08:30:42.183Z,23.90
2018-08-31T08:33:10.385Z,21.97
2018-08-31T08:35:38.546Z,22.73
2018-08-31T08:38:06.892Z,21.57
2018-08-31T08:40:35.045Z,21.73
2018-08-31T08:43:03.241Z,23.57
2018-08-31T08:45:31.651Z,32.10
2018-08-31T08:47:59.968Z,22.60
2018-08-31T08:50:29.352Z,22.37
2018-08-31T08:52:57.626Z,22.87
2018-08-31T08:55:25.822Z,23.40
2018-08-31T08:57:54.325Z,23.77
2018-08-31T09:00:23.384Z,22.03
2018-08-31T09:02:51.573Z,24.90
2018-08-31T09:05:19.748Z,26.73
2018-08-31T09:07:47.924Z,25.17
2018-08-31T09:10:16.130Z,24.63
2018-08-31T09:12:44.307Z,25.10
2018-08-31T09:15:12.500Z,24.70
2018-08-31T09:17:40.691Z,25.87
2018-08-31T09:20:08.871Z,25.47
2018-08-31T09:22:37.042Z,24.57
2018-08-31T09:25:05.236Z,26.53
2018-08-31T09:27:34.420Z,27.43
2018-08-31T09:30:02.613Z,26.33
2018-08-31T09:32:32.704Z,25.07
2018-08-31T09:35:01.183Z,24.60
2018-08-31T09:37:29.364Z,25.10
2018-08-31T09:39:57.535Z,25.90
2018-08-31T09:42:26.040Z,26.27
2018-08-31T09:44:54.264Z,25.33
2018-08-31T09:47:22.477Z,26.97
2018-08-31T09:49:50.666Z,26.77
2018-08-31T09:52:19.090Z,27.60
2018-08-31T09:54:47.285Z,27.90
2018-08-31T09:57:15.588Z,27.77
2018-08-31T09:59:44.548Z,27.97
2018-08-31T10:02:18.308Z,26.93
2018-08-31T10:04:46.761Z,27.73
2018-08-31T10:07:15.077Z,27.57
2018-08-31T10:09:43.257Z,28.40
2018-08-31T10:12:11.428Z,26.50
2018-08-31T10:14:39.665Z,28.33
2018-08-31T10:17:07.875Z,28.00
2018-08-31T10:19:36.072Z,26.63
2018-08-31T10:22:04.265Z,27.60
2018-08-31T10:24:32.484Z,26.53
2018-08-31T10:27:00.688Z,28.30
2018-08-31T10:29:28.897Z,26.00
2018-08-31T10:31:57.073Z,25.57
2018-08-31T10:34:25.362Z,25.73
2018-08-31T10:36:53.560Z,26.73
2018-08-31T10:39:21.915Z,26.03
2018-08-31T10:41:50.096Z,25.93
2018-08-31T10:44:18.859Z,25.57
2018-08-31T10:46:47.079Z,25.57
2018-08-31T10:49:15.261Z,24.47
2018-08-31T10:51:43.431Z,25.90
2018-08-31T10:54:11.601Z,24.73
2018-08-31T10:56:39.766Z,25.27
2018-08-31T10:59:07.976Z,26.43
2018-08-31T11:01:36.733Z,26.23
2018-08-31T11:04:04.923Z,26.87
2018-08-31T11:06:33.100Z,27.63
2018-08-31T11:09:01.287Z,25.70
2018-08-31T11:11:29.475Z,25.77
2018-08-31T11:13:57.631Z,25.37
2018-08-31T11:16:25.820Z,30.93
2018-08-31T11:18:53.989Z,20.60
2018-08-31T11:21:22.184Z,19.57
2018-08-31T11:23:50.365Z,19.03
2018-08-31T11:26:18.568Z,17.70
2018-08-31T11:28:46.765Z,17.23
2018-08-31T11:31:14.978Z,15.93
2018-08-31T11:33:43.181Z,15.93
2018-08-31T11:36:11.341Z,16.83
2018-08-31T11:38:39.531Z,17.27
2018-08-31T11:41:07.689Z,16.93
2018-08-31T11:43:36.417Z,16.10
2018-08-31T11:46:04.611Z,16.90
2018-08-31T11:48:32.818Z,15.60
2018-08-31T11:51:01.140Z,16.87
2018-08-31T11:53:29.288Z,14.60
2018-08-31T11:55:57.449Z,16.37
2018-08-31T11:58:25.632Z,13.97
2018-08-31T12:00:53.801Z,13.73
2018-08-31T12:03:21.993Z,12.07
2018-08-31T12:05:50.191Z,12.00
2018-08-31T12:08:18.348Z,12.87
2018-08-31T12:10:46.549Z,13.03
2018-08-31T12:13:14.744Z,11.77
2018-08-31T12:15:42.944Z,12.33
2018-08-31T12:18:11.109Z,12.00
2018-08-31T12:20:39.362Z,13.60
2018-08-31T12:23:07.644Z,12.63
2018-08-31T12:25:35.811Z,13.60
2018-08-31T12:28:03.989Z,13.97
2018-08-31T12:30:32.165Z,14.70
2018-08-31T12:33:00.332Z,14.77
2018-08-31T12:35:28.518Z,15.37
2018-08-31T12:37:56.731Z,13.87
2018-08-31T12:40:24.936Z,13.80
2018-08-31T12:42:53.120Z,13.57
2018-08-31T12:45:21.316Z,13.50
2018-08-31T12:47:49.513Z,13.17
2018-08-31T12:50:17.677Z,16.77
2018-08-31T12:52:45.879Z,12.57
2018-08-31T12:55:14.068Z,13.47
2018-08-31T12:57:42.246Z,13.87
2018-08-31T13:00:10.528Z,13.33
2018-08-31T13:02:38.685Z,12.80
2018-08-31T13:05:07.313Z,13.53
2018-08-31T13:07:35.499Z,14.63
2018-08-31T13:10:03.733Z,14.47
2018-08-31T13:12:31.930Z,13.00
2018-08-31T13:15:00.117Z,14.43
2018-08-31T13:17:28.287Z,13.53
2018-08-31T13:19:56.547Z,12.90
2018-08-31T13:22:24.673Z,16.50
2018-08-31T13:24:52.848Z,14.20
2018-08-31T13:27:21.068Z,14.60
2018-08-31T13:29:49.229Z,14.23
2018-08-31T13:32:17.451Z,14.47
2018-08-31T13:34:45.792Z,14.60
2018-08-31T13:37:14.143Z,16.27
2018-08-31T13:39:42.331Z,15.50
2018-08-31T13:42:10.497Z,15.23
2018-08-31T13:44:38.706Z,15.37
2018-08-31T13:47:06.910Z,16.73
2018-08-31T13:49:35.187Z,16.57
2018-08-31T13:52:03.368Z,15.30
2018-08-31T13:54:31.729Z,16.47
2018-08-31T13:56:59.936Z,16.43
2018-08-31T13:59:28.176Z,16.43
2018-08-31T14:01:56.356Z,14.77
2018-08-31T14:04:24.552Z,16.40
2018-08-31T14:06:52.771Z,13.13
2018-08-31T14:09:20.988Z,12.73
2018-08-31T14:11:49.284Z,12.93
2018-08-31T14:14:17.456Z,12.13
2018-08-31T14:16:45.744Z,13.60
2018-08-31T14:19:14.213Z,14.83
2018-08-31T14:21:42.439Z,13.33
2018-08-31T14:24:10.655Z,14.50
2018-08-31T14:26:38.868Z,13.97
2018-08-31T14:29:07.119Z,12.97
2018-08-31T14:31:35.344Z,14.00
2018-08-31T14:34:03.537Z,13.70
2018-08-31T14:36:32.000Z,13.83
2018-08-31T14:39:00.229Z,15.70
2018-08-31T14:41:28.437Z,15.77
2018-08-31T14:43:56.727Z,16.43
2018-08-31T14:46:24.931Z,14.93
2018-08-31T14:48:53.132Z,15.83
2018-08-31T14:51:21.424Z,17.00
2018-08-31T14:53:49.612Z,14.00
2018-08-31T14:56:17.790Z,15.03
2018-08-31T14:58:46.181Z,15.03
2018-08-31T15:01:14.429Z,15.17
2018-08-31T15:03:46.056Z,15.20
2018-08-31T15:06:14.265Z,15.77
2018-08-31T15:08:42.457Z,16.50
2018-08-31T15:11:10.701Z,16.47
2018-08-31T15:13:38.886Z,15.93
2018-08-31T15:16:07.249Z,16.20
2018-08-31T15:18:35.431Z,21.17
2018-08-31T15:21:03.620Z,16.33
2018-08-31T15:23:31.851Z,19.40
2018-08-31T15:26:00.005Z,17.33
2018-08-31T15:28:28.176Z,16.80
2018-08-31T15:30:56.361Z,18.17
2018-08-31T15:33:24.552Z,18.13
2018-08-31T15:35:52.750Z,17.10
2018-08-31T15:38:20.954Z,18.47
2018-08-31T15:40:49.151Z,17.10
2018-08-31T15:43:17.386Z,18.03
2018-08-31T15:45:45.632Z,17.13
2018-08-31T15:48:13.821Z,15.43
2018-08-31T15:50:42.059Z,15.90
2018-08-31T15:53:10.666Z,16.87
2018-08-31T15:55:38.852Z,16.77
2018-08-31T15:58:07.078Z,16.57
2018-08-31T16:00:35.287Z,16.67
2018-08-31T16:03:03.484Z,17.17
2018-08-31T16:05:31.726Z,17.57
2018-08-31T16:07:59.972Z,15.80
2018-08-31T16:10:28.181Z,17.67
2018-08-31T16:12:56.428Z,17.80
2018-08-31T16:15:25.122Z,17.53
2018-08-31T16:17:53.320Z,19.53
2018-08-31T16:20:21.512Z,16.90
2018-08-31T16:22:49.734Z,17.53
2018-08-31T16:25:17.949Z,19.67
2018-08-31T16:27:46.125Z,17.30
2018-08-31T16:30:14.669Z,18.17
2018-08-31T16:32:42.879Z,16.97
2018-08-31T16:35:11.081Z,16.73
2018-08-31T16:37:39.245Z,16.73
2018-08-31T16:40:07.476Z,15.87
2018-08-31T16:42:35.684Z,18.10
2018-08-31T16:45:03.918Z,17.53
2018-08-31T16:47:32.117Z,16.93
2018-08-31T16:50:00.336Z,17.27
2018-08-31T16:52:28.531Z,20.27
2018-08-31T16:54:56.768Z,17.47
2018-08-31T16:57:25.206Z,17.70
2018-08-31T16:59:53.432Z,20.97
2018-08-31T17:02:21.775Z,19.77
2018-08-31T17:04:50.196Z,18.47
2018-08-31T17:07:21.193Z,26.97
2018-08-31T17:09:50.837Z,19.90
2018-08-31T17:12:19.021Z,22.63
2018-08-31T17:14:50.438Z,22.60
2018-08-31T17:17:18.712Z,21.77
2018-08-31T17:19:46.885Z,23.23
2018-08-31T17:22:15.128Z,40.20
2018-08-31T17:24:43.339Z,23.93
2018-08-31T17:27:17.544Z,25.53
2018-08-31T17:29:46.885Z,21.23
2018-08-31T17:32:20.688Z,21.30
2018-08-31T17:34:55.024Z,25.17
2018-08-31T17:37:29.090Z,21.80
2018-08-31T17:39:57.723Z,21.57
2018-08-31T17:42:27.722Z,32.70
2018-08-31T17:44:57.100Z,21.00
2018-08-31T17:47:25.337Z,22.83
2018-08-31T17:49:53.552Z,23.93
2018-08-31T17:52:21.718Z,22.23
2018-08-31T17:54:49.968Z,24.17
2018-08-31T17:57:18.169Z,23.90
2018-08-31T17:59:46.491Z,26.03
2018-08-31T18:02:14.737Z,25.23
2018-08-31T18:04:42.936Z,24.90
2018-08-31T18:07:11.108Z,25.03
2018-08-31T18:09:39.358Z,25.20
2018-08-31T18:12:07.487Z,25.20
2018-08-31T18:14:35.689Z,25.03
2018-08-31T18:17:03.911Z,25.07
2018-08-31T18:19:32.105Z,25.27
2018-08-31T18:22:00.421Z,28.27
2018-08-31T18:24:29.574Z,25.70
2018-08-31T18:26:57.762Z,25.07
2018-08-31T18:29:26.048Z,26.73
2018-08-31T18:31:54.254Z,28.80
2018-08-31T18:34:22.608Z,27.70
2018-08-31T18:36:51.680Z,26.90
2018-08-31T18:39:19.876Z,27.13
2018-08-31T18:41:48.132Z,26.90
2018-08-31T18:44:16.328Z,24.77
2018-08-31T18:46:44.902Z,25.23
2018-08-31T18:49:13.033Z,25.50
2018-08-31T18:51:41.394Z,24.37
2018-08-31T18:54:09.626Z,24.13
2018-08-31T18:56:37.840Z,23.93
2018-08-31T18:59:06.045Z,23.03
2018-08-31T19:01:34.304Z,21.47
2018-08-31T19:04:02.660Z,21.73
2018-08-31T19:06:31.457Z,20.77
2018-08-31T19:08:59.677Z,21.20
2018-08-31T19:11:27.867Z,21.23
2018-08-31T19:13:56.069Z,20.23
2018-08-31T19:16:24.304Z,22.17
2018-08-31T19:18:52.525Z,22.87
2018-08-31T19:21:20.747Z,21.93
2018-08-31T19:23:48.962Z,24.70
2018-08-31T19:26:17.178Z,24.80
2018-08-31T19:28:45.386Z,23.93
2018-08-31T19:31:13.619Z,23.07
2018-08-31T19:33:41.827Z,28.27
2018-08-31T19:36:10.079Z,25.63
2018-08-31T19:38:38.327Z,25.67
2018-08-31T19:41:06.541Z,27.40
2018-08-31T19:43:34.752Z,25.90
2018-08-31T19:46:02.965Z,28.37
2018-08-31T19:48:31.144Z,28.47
2018-08-31T19:50:59.348Z,26.97
2018-08-31T19:53:27.547Z,27.73
2018-08-31T19:55:56.333Z,27.17
2018-08-31T19:58:24.559Z,26.33
2018-08-31T20:00:52.757Z,27.10
2018-08-31T20:03:21.106Z,29.37
2018-08-31T20:05:49.336Z,29.13
2018-08-31T20:08:17.533Z,29.03
2018-08-31T20:10:45.937Z,29.00
2018-08-31T20:13:14.328Z,32.23
2018-08-31T20:15:42.484Z,30.10
2018-08-31T20:18:10.682Z,29.10
2018-08-31T20:20:38.924Z,27.90
2018-08-31T20:23:07.129Z,27.77
2018-08-31T20:25:35.449Z,28.43
2018-08-31T20:28:03.715Z,29.70
2018-08-31T20:30:31.973Z,30.33
2018-08-31T20:33:00.532Z,26.67
2018-08-31T20:35:28.851Z,27.83
2018-08-31T20:37:57.052Z,27.63
2018-08-31T20:40:25.240Z,26.50
2018-08-31T20:42:53.446Z,27.00
2018-08-31T20:45:21.640Z,25.43
2018-08-31T20:47:49.917Z,27.40
2018-08-31T20:50:18.373Z,25.47
2018-08-31T20:52:46.619Z,28.17
2018-08-31T20:55:14.860Z,26.50
2018-08-31T20:57:43.077Z,25.87
2018-08-31T21:00:11.395Z,25.53
2018-08-31T21:02:39.617Z,27.00
2018-08-31T21:05:07.857Z,28.30
2018-08-31T21:07:36.079Z,25.90
2018-08-31T21:10:04.457Z,27.93
2018-08-31T21:12:32.672Z,26.67
2018-08-31T21:15:01.521Z,27.83
2018-08-31T21:17:29.949Z,29.77
2018-08-31T21:19:58.226Z,27.23
2018-08-31T21:22:26.826Z,28.20
2018-08-31T21:24:55.140Z,29.47
2018-08-31T21:27:23.547Z,27.90
2018-08-31T21:29:51.811Z,27.23
2018-08-31T21:32:20.025Z,27.43
2018-08-31T21:34:48.207Z,28.40
2018-08-31T21:37:16.524Z,27.13
2018-08-31T21:39:44.742Z,28.00
2018-08-31T21:42:13.246Z,27.27
2018-08-31T21:44:41.418Z,27.53
2018-08-31T21:47:09.620Z,25.73
2018-08-31T21:49:37.906Z,26.83
2018-08-31T21:52:06.137Z,26.97
2018-08-31T21:55:05.226Z,26.80
2018-08-31T21:57:33.440Z,28.40
2018-08-31T22:00:01.628Z,30.30
2018-08-31T22:02:30.173Z,28.77
2018-08-31T22:04:58.378Z,30.30
2018-08-31T22:07:26.597Z,28.87
2018-08-31T22:09:54.811Z,31.47
2018-08-31T22:12:23.036Z,31.40
2018-08-31T22:14:51.309Z,30.87
2018-08-31T22:17:19.617Z,29.13
2018-08-31T22:19:48.183Z,28.87
2018-08-31T22:22:16.360Z,37.27
2018-08-31T22:24:44.680Z,29.13
2018-08-31T22:27:13.432Z,29.10
2018-08-31T22:32:35.386Z,26.63
2018-08-31T22:35:03.659Z,28.73
2018-08-31T22:37:31.887Z,27.80
2018-08-31T22:40:00.176Z,27.27
2018-08-31T22:42:28.602Z,28.90
2018-08-31T22:44:58.088Z,26.43
2018-08-31T22:47:26.294Z,24.50
2018-08-31T22:49:54.483Z,26.37
2018-08-31T22:52:22.672Z,25.73
2018-08-31T22:54:51.098Z,24.30
2018-08-31T22:57:19.338Z,25.87
2018-08-31T22:59:48.470Z,25.57
2018-08-31T23:02:16.736Z,26.30
2018-08-31T23:04:44.931Z,25.37
2018-08-31T23:08:20.223Z,24.77
2018-08-31T23:10:48.533Z,25.90
2018-08-31T23:13:16.900Z,25.10
2018-08-31T23:15:45.173Z,25.97
2018-08-31T23:18:13.401Z,25.50
2018-08-31T23:20:41.609Z,26.63
2018-08-31T23:23:15.259Z,27.93
2018-08-31T23:25:49.826Z,26.00
2018-08-31T23:28:19.504Z,27.70
2018-08-31T23:30:48.624Z,28.00
2018-08-31T23:33:17.099Z,27.50
2018-08-31T23:35:45.721Z,26.77
2018-08-31T23:38:16.649Z,27.10
2018-08-31T23:40:45.209Z,28.37
2018-08-31T23:43:13.518Z,28.90
2018-08-31T23:45:41.770Z,27.57
2018-08-31T23:48:09.952Z,26.37
2018-08-31T23:50:38.644Z,28.13
2018-08-31T23:53:06.862Z,28.57
2018-08-31T23:55:35.077Z,28.43
2018-08-31T23:58:03.286Z,28.73
